Time;durP1;ratioP1;P1;durP2;ratioP2;P2;SDS_P1;SDS_P2;PMS_P1;PMS_P2;Temp;Humidity;BMP_temperature;BMP_pressure;BME280_temperature;BME280_humidity;BME280_pressure;Samples;Min_cycle;Max_cycle;Signal;HPM_P1;HPM_P2
2023/01/13 00:01:07;;;;;;;38.47;7.32;;;;;;;;;;5046732;28;20032;-78
2023/01/13 00:03:33;;;;;;;33.42;6.85;;;;;;;;;;5061599;28;20484;-78
2023/01/13 00:05:59;;;;;;;34.30;5.70;;;;;;;;;;5063627;28;20746;-79
2023/01/13 00:08:25;;;;;;;33.67;6.28;;;;;;;;;;5059044;28;20040;-79
2023/01/13 00:10:51;;;;;;;40.70;5.88;;;;;;;;;;5064293;28;20094;-77
2023/01/13 00:13:25;;;;;;;41.65;6.97;;;;;;;;;;5060559;28;20033;-76
2023/01/13 00:15:57;;;;;;;31.85;5.35;;;;;;;;;;5067556;28;20025;-76
2023/01/13 00:18:23;;;;;;;36.28;6.47;;;;;;;;;;5061701;28;20036;-76
2023/01/13 00:20:57;;;;;;;43.78;5.88;;;;;;;;;;5066887;28;20025;-77
2023/01/13 00:23:23;;;;;;;45.20;7.05;;;;;;;;;;5066200;28;20381;-75
2023/01/13 00:25:49;;;;;;;47.95;9.02;;;;;;;;;;5063658;28;20040;-76
2023/01/13 00:28:15;;;;;;;45.60;7.50;;;;;;;;;;5046779;28;20036;-76
2023/01/13 00:30:41;;;;;;;47.35;7.68;;;;;;;;;;5047160;28;20035;-75
2023/01/13 00:33:07;;;;;;;44.80;7.35;;;;;;;;;;5065621;28;20032;-77
2023/01/13 00:35:33;;;;;;;56.05;8.38;;;;;;;;;;5057964;28;20068;-79
2023/01/13 00:37:59;;;;;;;37.28;6.72;;;;;;;;;;5045097;28;20051;-78
2023/01/13 00:40:25;;;;;;;55.50;9.10;;;;;;;;;;5041625;28;20312;-77
2023/01/13 00:45:37;;;;;;;45.45;6.95;;;;;;;;;;5037391;28;20041;-78
2023/01/13 00:48:03;;;;;;;51.97;9.30;;;;;;;;;;5047256;28;20033;-77
2023/01/13 00:50:29;;;;;;;43.35;7.60;;;;;;;;;;5042598;28;20035;-78
2023/01/13 00:52:55;;;;;;;48.17;7.00;;;;;;;;;;5041050;28;20104;-77
2023/01/13 00:55:21;;;;;;;46.03;6.50;;;;;;;;;;5042844;28;20036;-77
2023/01/13 00:57:47;;;;;;;50.85;7.45;;;;;;;;;;5044849;28;20056;-78
2023/01/13 01:00:13;;;;;;;54.05;9.57;;;;;;;;;;5046366;28;20061;-77
2023/01/13 01:02:39;;;;;;;54.30;9.48;;;;;;;;;;5045865;28;20068;-78
2023/01/13 01:05:06;;;;;;;45.45;7.70;;;;;;;;;;5040943;28;20049;-78
2023/01/13 01:07:32;;;;;;;47.67;7.97;;;;;;;;;;5052150;28;20033;-78
2023/01/13 01:09:57;;;;;;;49.08;7.93;;;;;;;;;;5046754;28;20037;-78
2023/01/13 01:12:23;;;;;;;59.83;9.70;;;;;;;;;;5042805;28;20134;-77
2023/01/13 01:14:49;;;;;;;50.70;6.90;;;;;;;;;;5044394;28;20087;-77
2023/01/13 01:17:15;;;;;;;48.45;7.93;;;;;;;;;;5039693;28;20390;-76
2023/01/13 01:19:41;;;;;;;45.95;8.15;;;;;;;;;;5043349;28;20029;-76
2023/01/13 01:22:07;;;;;;;43.97;7.35;;;;;;;;;;5047961;28;20036;-75
2023/01/13 01:24:33;;;;;;;47.00;7.38;;;;;;;;;;5048837;28;20033;-76
2023/01/13 01:26:59;;;;;;;57.00;8.23;;;;;;;;;;5050380;28;20074;-76
2023/01/13 01:29:25;;;;;;;48.70;9.18;;;;;;;;;;5055865;28;20037;-77
2023/01/13 01:31:51;;;;;;;34.83;6.82;;;;;;;;;;5045185;28;20036;-75
2023/01/13 01:34:17;;;;;;;48.42;6.93;;;;;;;;;;5051788;28;20048;-79
2023/01/13 01:36:43;;;;;;;43.35;7.82;;;;;;;;;;5049081;28;20039;-78
2023/01/13 01:39:10;;;;;;;46.22;7.88;;;;;;;;;;5074816;28;20124;-79
2023/01/13 01:41:36;;;;;;;41.05;7.72;;;;;;;;;;5063824;28;20098;-79
2023/01/13 01:44:09;;;;;;;41.45;6.47;;;;;;;;;;5066594;28;20046;-79
2023/01/13 01:46:37;;;;;;;44.33;7.85;;;;;;;;;;5069003;28;20025;-76
2023/01/13 01:49:10;;;;;;;57.00;9.63;;;;;;;;;;5067591;28;20028;-78
2023/01/13 01:51:38;;;;;;;45.00;7.88;;;;;;;;;;5065980;28;20033;-78
2023/01/13 01:54:07;;;;;;;43.63;6.57;;;;;;;;;;5065586;28;20058;-79
2023/01/13 01:56:33;;;;;;;50.20;8.60;;;;;;;;;;5071521;28;20033;-79
2023/01/13 01:58:59;;;;;;;46.22;6.78;;;;;;;;;;5067435;28;20043;-79
2023/01/13 02:01:25;;;;;;;40.03;7.40;;;;;;;;;;5063508;28;20031;-78
2023/01/13 02:03:58;;;;;;;41.53;7.63;;;;;;;;;;5068369;28;20024;-79
2023/01/13 02:06:25;;;;;;;52.70;6.70;;;;;;;;;;5069558;28;20607;-79
2023/01/13 02:08:51;;;;;;;44.08;8.40;;;;;;;;;;5069294;28;20225;-79
2023/01/13 02:14:12;;;;;;;47.55;7.15;;;;;;;;;;5061744;28;20376;-77
2023/01/13 02:16:43;;;;;;;44.10;7.65;;;;;;;;;;5067170;28;20033;-76
2023/01/13 02:19:29;;;;;;;53.72;8.15;;;;;;;;;;5063887;28;20037;-77
2023/01/13 02:22:07;;;;;;;45.65;8.07;;;;;;;;;;5056283;28;20032;-77
2023/01/13 02:24:54;;;;;;;51.10;7.65;;;;;;;;;;5064459;28;20065;-77
2023/01/13 02:27:39;;;;;;;48.22;7.50;;;;;;;;;;5065406;28;20031;-77
2023/01/13 02:33:15;;;;;;;46.00;8.32;;;;;;;;;;4955659;28;20031;-77
2023/01/13 02:35:50;;;;;;;39.20;7.43;;;;;;;;;;5037285;28;20063;-77
2023/01/13 02:38:19;;;;;;;54.33;9.23;;;;;;;;;;5065354;28;20032;-76
2023/01/13 02:44:05;;;;;;;43.30;7.80;;;;;;;;;;5068459;28;20400;-77
2023/01/13 02:46:41;;;;;;;47.28;6.72;;;;;;;;;;5064890;28;20148;-76
2023/01/13 02:49:09;;;;;;;49.42;8.18;;;;;;;;;;5063020;28;20036;-77
2023/01/13 02:51:38;;;;;;;44.45;7.35;;;;;;;;;;5061770;28;20086;-76
2023/01/13 02:54:10;;;;;;;50.05;6.95;;;;;;;;;;5044842;28;20028;-77
2023/01/13 02:56:36;;;;;;;;;;;;;;;;;;5043263;28;20028;-77
2023/01/13 02:59:03;;;;;;;43.33;7.30;;;;;;;;;;5063194;28;19916;-77
2023/01/13 03:01:29;;;;;;;53.20;7.07;;;;;;;;;;5062524;28;20111;-77
2023/01/13 03:03:55;;;;;;;40.38;6.45;;;;;;;;;;5067492;28;20524;-77
2023/01/13 03:06:47;;;;;;;49.53;6.90;;;;;;;;;;5066268;28;20090;-77
2023/01/13 03:09:22;;;;;;;43.35;6.72;;;;;;;;;;5064727;28;20056;-78
2023/01/13 03:12:14;;;;;;;43.78;5.85;;;;;;;;;;5065232;28;20025;-77
2023/01/13 03:14:40;;;;;;;39.03;7.43;;;;;;;;;;5064956;28;20040;-77
2023/01/13 03:17:09;;;;;;;34.92;5.38;;;;;;;;;;5063594;28;20039;-77
2023/01/13 03:19:58;;;;;;;40.58;5.30;;;;;;;;;;5061638;28;20413;-77
2023/01/13 03:22:27;;;;;;;38.65;6.25;;;;;;;;;;5066727;28;20032;-76
2023/01/13 03:25:02;;;;;;;40.65;6.05;;;;;;;;;;5065462;28;20035;-77
2023/01/13 03:27:40;;;;;;;46.92;7.53;;;;;;;;;;5065971;28;20163;-77
2023/01/13 03:30:09;;;;;;;31.92;6.32;;;;;;;;;;5068086;28;20481;-77
2023/01/13 03:32:37;;;;;;;42.75;5.53;;;;;;;;;;5061221;28;20041;-77
2023/01/13 03:35:15;;;;;;;37.90;6.57;;;;;;;;;;5066988;28;20072;-77
2023/01/13 03:37:43;;;;;;;37.65;7.70;;;;;;;;;;5063691;28;20073;-77
2023/01/13 03:40:20;;;;;;;42.75;7.07;;;;;;;;;;5064799;28;20070;-77
2023/01/13 03:44:20;;;;;;;38.25;6.10;;;;;;;;;;5064662;28;20025;-78
2023/01/13 03:45:35;;;;;;;48.28;9.10;;;;;;;;;;5064265;28;20036;-78
2023/01/13 03:48:04;;;;;;;38.60;7.95;;;;;;;;;;5060720;28;20157;-78
2023/01/13 03:50:34;;;;;;;41.88;6.43;;;;;;;;;;5067133;28;20040;-79
2023/01/13 03:53:03;;;;;;;50.17;7.43;;;;;;;;;;5041458;28;20381;-78
2023/01/13 03:55:32;;;;;;;45.60;6.03;;;;;;;;;;5066241;28;20033;-77
2023/01/13 03:58:06;;;;;;;41.85;7.15;;;;;;;;;;5062248;28;20074;-78
2023/01/13 04:00:35;;;;;;;37.63;7.13;;;;;;;;;;5070172;28;20050;-77
2023/01/13 04:03:07;;;;;;;37.90;7.53;;;;;;;;;;5068766;28;20153;-78
2023/01/13 04:05:35;;;;;;;40.05;5.97;;;;;;;;;;5070272;28;20024;-78
2023/01/13 04:08:04;;;;;;;41.72;7.50;;;;;;;;;;5063298;28;20025;-78
2023/01/13 04:10:34;;;;;;;40.95;6.10;;;;;;;;;;5070402;28;20029;-78
2023/01/13 04:13:03;;;;;;;46.80;6.75;;;;;;;;;;5067933;28;20032;-77
2023/01/13 04:15:37;;;;;;;39.30;8.02;;;;;;;;;;5064029;28;20032;-77
2023/01/13 04:18:10;;;;;;;51.40;8.82;;;;;;;;;;5058557;28;20066;-77
2023/01/13 04:20:38;;;;;;;41.53;6.32;;;;;;;;;;5064184;28;20035;-78
2023/01/13 04:23:05;;;;;;;46.28;8.73;;;;;;;;;;5063070;28;20062;-77
2023/01/13 04:25:31;;;;;;;35.47;6.50;;;;;;;;;;5065394;28;20497;-77
2023/01/13 04:27:57;;;;;;;41.92;6.20;;;;;;;;;;5065539;28;20548;-78
2023/01/13 04:30:23;;;;;;;42.05;7.40;;;;;;;;;;5061238;28;20066;-77
2023/01/13 04:32:50;;;;;;;36.55;5.53;;;;;;;;;;5068357;28;20567;-78
2023/01/13 04:35:16;;;;;;;40.30;5.93;;;;;;;;;;5042348;28;20048;-78
2023/01/13 04:37:42;;;;;;;46.33;8.35;;;;;;;;;;5042579;28;20379;-78
2023/01/13 04:40:08;;;;;;;36.88;5.72;;;;;;;;;;5042568;28;20033;-78
2023/01/13 04:42:34;;;;;;;32.20;7.22;;;;;;;;;;5043389;28;20532;-78
2023/01/13 04:45:01;;;;;;;38.55;6.35;;;;;;;;;;5039561;28;20033;-78
2023/01/13 04:47:27;;;;;;;38.95;6.15;;;;;;;;;;5043582;28;20566;-78
2023/01/13 04:49:53;;;;;;;33.72;5.13;;;;;;;;;;5040343;28;20025;-78
2023/01/13 04:52:18;;;;;;;30.08;4.68;;;;;;;;;;5045514;28;20447;-78
2023/01/13 04:54:44;;;;;;;30.35;5.57;;;;;;;;;;5044204;28;20044;-78
2023/01/13 04:57:11;;;;;;;43.63;6.93;;;;;;;;;;5044022;28;20044;-78
2023/01/13 04:59:37;;;;;;;38.38;6.18;;;;;;;;;;5042972;28;20037;-78
2023/01/13 05:02:03;;;;;;;42.33;6.03;;;;;;;;;;5044751;28;20025;-77
2023/01/13 05:04:29;;;;;;;34.55;6.35;;;;;;;;;;5044069;28;20043;-77
2023/01/13 05:06:55;;;;;;;44.03;6.07;;;;;;;;;;5046653;28;20029;-78
2023/01/13 05:09:21;;;;;;;39.03;7.05;;;;;;;;;;5042772;28;20030;-78
2023/01/13 05:17:19;;;;;;;34.90;6.43;;;;;;;;;;5045364;28;20040;-77
2023/01/13 05:19:45;;;;;;;27.73;4.97;;;;;;;;;;5042633;28;20467;-77
2023/01/13 05:27:40;;;;;;;28.95;4.35;;;;;;;;;;5041325;28;20044;-77
2023/01/13 05:30:07;;;;;;;34.55;5.30;;;;;;;;;;5043835;28;20420;-78
2023/01/13 05:32:33;;;;;;;29.45;5.57;;;;;;;;;;5042290;28;20107;-78
2023/01/13 05:34:59;;;;;;;25.50;4.50;;;;;;;;;;5053698;28;20056;-78
2023/01/13 05:37:25;;;;;;;32.97;4.80;;;;;;;;;;5062731;28;20068;-78
2023/01/13 05:45:20;;;;;;;35.88;5.20;;;;;;;;;;5050937;28;20117;-77
2023/01/13 05:47:46;;;;;;;34.88;5.57;;;;;;;;;;5064614;28;20036;-77
2023/01/13 05:50:13;;;;;;;32.80;5.53;;;;;;;;;;5049412;28;20024;-78
2023/01/13 05:52:39;;;;;;;41.88;5.38;;;;;;;;;;5068953;28;22168;-77
2023/01/13 05:55:05;;;;;;;26.75;4.47;;;;;;;;;;5063846;28;20032;-78
2023/01/13 05:57:31;;;;;;;26.48;3.88;;;;;;;;;;5063740;28;20033;-78
2023/01/13 05:59:57;;;;;;;27.40;5.43;;;;;;;;;;5070679;28;20040;-78
2023/01/13 06:02:23;;;;;;;29.38;4.63;;;;;;;;;;5067402;28;20083;-79
2023/01/13 06:04:49;;;;;;;26.25;4.68;;;;;;;;;;5071330;28;20504;-78
2023/01/13 06:07:15;;;;;;;40.97;7.40;;;;;;;;;;5065336;28;20032;-79
2023/01/13 06:09:41;;;;;;;25.95;4.57;;;;;;;;;;5051163;28;20024;-79
2023/01/13 06:12:10;;;;;;;39.10;6.88;;;;;;;;;;5069520;28;20036;-78
2023/01/13 06:14:39;;;;;;;29.15;4.65;;;;;;;;;;5065527;28;20102;-78
2023/01/13 06:17:13;;;;;;;31.15;4.63;;;;;;;;;;5063921;28;20491;-78
2023/01/13 06:19:39;;;;;;;25.98;5.40;;;;;;;;;;5067745;28;20028;-77
2023/01/13 06:22:15;;;;;;;23.83;3.97;;;;;;;;;;5073001;28;20033;-77
2023/01/13 06:24:41;;;;;;;32.90;5.43;;;;;;;;;;5052081;28;20033;-77
2023/01/13 06:27:08;;;;;;;30.00;4.63;;;;;;;;;;5062429;28;20115;-77
2023/01/13 06:29:34;;;;;;;31.63;4.20;;;;;;;;;;5068376;28;20381;-78
2023/01/13 06:32:06;;;;;;;24.08;3.78;;;;;;;;;;5044833;28;20021;-81
2023/01/13 06:34:33;;;;;;;31.00;5.27;;;;;;;;;;5065951;28;20470;-80
2023/01/13 06:37:00;;;;;;;27.90;4.25;;;;;;;;;;5045798;28;22384;-78
2023/01/13 06:39:29;;;;;;;25.90;4.47;;;;;;;;;;5060835;28;20028;-78
2023/01/13 06:44:40;;;;;;;33.15;5.82;;;;;;;;;;5070270;28;20506;-78
2023/01/13 06:47:06;;;;;;;29.05;5.20;;;;;;;;;;5065377;28;20071;-80
2023/01/13 06:49:33;;;;;;;28.02;4.60;;;;;;;;;;5064467;28;20394;-81
2023/01/13 06:51:59;;;;;;;33.45;6.13;;;;;;;;;;5048598;28;20381;-78
2023/01/13 06:54:24;;;;;;;30.38;4.15;;;;;;;;;;5063845;28;20503;-77
2023/01/13 06:56:51;;;;;;;21.13;3.88;;;;;;;;;;5080340;28;20036;-78
2023/01/13 06:59:17;;;;;;;28.40;6.38;;;;;;;;;;5062842;28;20029;-77
2023/01/13 07:01:43;;;;;;;35.22;7.00;;;;;;;;;;5060875;28;20033;-79
2023/01/13 07:04:09;;;;;;;27.58;6.32;;;;;;;;;;5056378;28;20500;-78
2023/01/13 07:06:35;;;;;;;37.25;5.35;;;;;;;;;;5062717;28;20032;-79
2023/01/13 07:09:01;;;;;;;27.67;4.63;;;;;;;;;;5060269;28;20104;-78
2023/01/13 07:11:27;;;;;;;33.03;5.00;;;;;;;;;;5065230;28;20043;-78
2023/01/13 07:16:38;;;;;;;36.33;6.55;;;;;;;;;;5066150;28;20102;-78
2023/01/13 07:19:04;;;;;;;25.33;4.57;;;;;;;;;;5057605;28;20513;-78
2023/01/13 07:21:30;;;;;;;32.20;4.25;;;;;;;;;;5055886;28;20035;-79
2023/01/13 07:23:56;;;;;;;31.08;4.95;;;;;;;;;;5068293;28;20028;-78
2023/01/13 07:26:22;;;;;;;27.50;6.30;;;;;;;;;;5067542;28;20032;-76
2023/01/13 07:28:48;;;;;;;34.05;5.72;;;;;;;;;;5065434;28;20377;-75
2023/01/13 07:31:15;;;;;;;38.10;6.13;;;;;;;;;;5065804;28;20029;-77
2023/01/13 07:33:41;;;;;;;28.27;5.45;;;;;;;;;;5067730;28;20020;-79
2023/01/13 07:36:08;;;;;;;33.38;5.63;;;;;;;;;;5067908;28;20408;-77
2023/01/13 07:38:34;;;;;;;34.08;5.50;;;;;;;;;;5042180;28;20028;-77
2023/01/13 07:43:53;;;;;;;36.42;4.55;;;;;;;;;;5035740;28;20045;-79
2023/01/13 07:46:19;;;;;;;29.58;4.40;;;;;;;;;;5057262;28;20075;-75
2023/01/13 07:48:46;;;;;;;25.92;5.10;;;;;;;;;;5063196;28;20060;-75
2023/01/13 07:51:12;;;;;;;32.88;6.07;;;;;;;;;;5058308;28;20430;-77
2023/01/13 07:53:38;;;;;;;29.63;5.75;;;;;;;;;;5064464;28;20108;-78
2023/01/13 07:56:05;;;;;;;25.95;5.00;;;;;;;;;;5064324;28;20098;-78
2023/01/13 07:58:32;;;;;;;39.28;6.93;;;;;;;;;;5048535;28;20037;-79
2023/01/13 08:00:58;;;;;;;34.92;5.15;;;;;;;;;;5058954;28;20481;-78
2023/01/13 08:03:26;;;;;;;24.98;5.20;;;;;;;;;;5046516;28;20041;-77
2023/01/13 08:05:52;;;;;;;31.50;5.53;;;;;;;;;;5070722;28;20473;-77
2023/01/13 08:08:18;;;;;;;30.50;5.28;;;;;;;;;;5063724;28;20092;-77
2023/01/13 08:10:44;;;;;;;37.45;5.80;;;;;;;;;;5063527;28;20033;-77
2023/01/13 08:13:17;;;;;;;37.13;5.03;;;;;;;;;;5057080;28;20089;-77
2023/01/13 08:15:43;;;;;;;40.03;5.32;;;;;;;;;;5064300;28;20025;-77
2023/01/13 08:18:10;;;;;;;32.67;6.85;;;;;;;;;;5068085;28;20029;-77
2023/01/13 08:20:36;;;;;;;36.67;5.28;;;;;;;;;;5071801;28;20369;-79
2023/01/13 08:23:02;;;;;;;35.78;5.05;;;;;;;;;;5061199;28;20053;-78
2023/01/13 08:25:28;;;;;;;44.42;6.53;;;;;;;;;;5051340;28;20029;-78
2023/01/13 08:27:55;;;;;;;26.20;5.03;;;;;;;;;;5064247;28;20031;-78
2023/01/13 08:30:21;;;;;;;28.35;4.65;;;;;;;;;;5057506;28;20021;-79
2023/01/13 08:32:48;;;;;;;32.75;4.85;;;;;;;;;;5059589;28;20056;-77
2023/01/13 08:35:14;;;;;;;31.50;5.68;;;;;;;;;;5054160;28;20052;-77
2023/01/13 08:37:40;;;;;;;40.20;6.70;;;;;;;;;;5067935;28;20056;-77
2023/01/13 08:40:07;;;;;;;33.40;5.78;;;;;;;;;;5070135;28;20039;-77
2023/01/13 08:42:33;;;;;;;31.02;6.43;;;;;;;;;;5068694;28;20093;-79
2023/01/13 08:44:59;;;;;;;37.70;6.00;;;;;;;;;;5051869;28;20036;-78
2023/01/13 08:47:26;;;;;;;30.05;5.75;;;;;;;;;;5052903;28;20433;-79
2023/01/13 08:49:52;;;;;;;23.50;4.28;;;;;;;;;;5072407;28;20461;-79
2023/01/13 08:52:18;;;;;;;30.77;4.43;;;;;;;;;;5067349;28;20465;-80
2023/01/13 08:54:45;;;;;;;29.55;5.03;;;;;;;;;;5063764;28;20048;-78
2023/01/13 08:57:11;;;;;;;40.03;5.20;;;;;;;;;;5068576;28;20059;-78
2023/01/13 08:59:37;;;;;;;26.98;4.90;;;;;;;;;;5063294;28;20693;-77
2023/01/13 09:02:03;;;;;;;23.20;4.45;;;;;;;;;;5069103;28;20472;-76
2023/01/13 09:04:29;;;;;;;39.15;5.20;;;;;;;;;;5061162;28;20404;-77
2023/01/13 09:06:55;;;;;;;29.67;4.97;;;;;;;;;;5060850;28;20033;-78
2023/01/13 09:09:22;;;;;;;31.25;5.47;;;;;;;;;;5063817;28;20080;-80
2023/01/13 09:14:36;;;;;;;30.80;5.78;;;;;;;;;;5063281;28;20048;-77
2023/01/13 09:17:02;;;;;;;38.80;6.70;;;;;;;;;;5066452;28;20025;-78
2023/01/13 09:19:28;;;;;;;31.50;5.65;;;;;;;;;;5056434;28;20035;-77
2023/01/13 09:21:54;;;;;;;25.98;5.60;;;;;;;;;;5068597;28;20029;-77
2023/01/13 09:24:21;;;;;;;28.90;5.18;;;;;;;;;;5041740;28;20040;-77
2023/01/13 09:26:47;;;;;;;34.72;5.97;;;;;;;;;;5063210;28;20029;-77
2023/01/13 09:29:13;;;;;;;31.83;5.43;;;;;;;;;;5064653;28;20024;-77
2023/01/13 09:31:39;;;;;;;40.90;6.65;;;;;;;;;;5064317;28;20037;-77
2023/01/13 09:36:57;;;;;;;29.70;5.43;;;;;;;;;;5061029;28;20056;-77
2023/01/13 09:39:23;;;;;;;47.30;8.65;;;;;;;;;;5067217;28;20477;-77
2023/01/13 09:44:45;;;;;;;37.55;5.00;;;;;;;;;;5064811;28;20043;-77
2023/01/13 09:47:16;;;;;;;37.85;4.88;;;;;;;;;;5072362;28;20036;-77
2023/01/13 09:49:42;;;;;;;25.58;5.05;;;;;;;;;;5064243;28;20029;-77
2023/01/13 09:52:14;;;;;;;31.88;4.35;;;;;;;;;;5040215;28;20040;-78
2023/01/13 09:54:45;;;;;;;32.28;5.22;;;;;;;;;;5049654;28;20024;-77
2023/01/13 09:57:12;;;;;;;33.25;4.25;;;;;;;;;;5070118;28;20439;-77
2023/01/13 09:59:39;;;;;;;32.17;4.65;;;;;;;;;;5058063;28;20051;-77
2023/01/13 10:02:23;;;;;;;29.83;4.93;;;;;;;;;;5073083;28;20085;-77
2023/01/13 10:05:06;;;;;;;29.52;4.05;;;;;;;;;;5064762;28;20044;-77
2023/01/13 10:07:34;;;;;;;23.80;3.92;;;;;;;;;;5073381;28;20016;-77
2023/01/13 10:10:01;;;;;;;35.35;6.28;;;;;;;;;;5040199;28;20028;-77
2023/01/13 10:15:15;;;;;;;24.90;4.28;;;;;;;;;;5065602;28;20469;-77
2023/01/13 10:17:47;;;;;;;43.17;5.65;;;;;;;;;;5062168;28;20099;-77
2023/01/13 10:20:19;;;;;;;29.60;5.68;;;;;;;;;;5063201;28;20052;-77
2023/01/13 10:23:06;;;;;;;35.67;6.03;;;;;;;;;;5072672;28;20470;-77
2023/01/13 10:25:50;;;;;;;29.98;4.88;;;;;;;;;;5051361;28;20040;-77
2023/01/13 10:28:22;;;;;;;29.42;3.63;;;;;;;;;;5066233;28;20033;-77
2023/01/13 10:30:48;;;;;;;26.35;3.05;;;;;;;;;;5065861;28;20029;-77
2023/01/13 10:33:16;;;;;;;32.47;4.97;;;;;;;;;;5073227;28;20101;-77
2023/01/13 10:35:48;;;;;;;34.30;5.18;;;;;;;;;;5067108;28;20076;-77
2023/01/13 10:38:15;;;;;;;27.27;4.65;;;;;;;;;;5071424;28;20103;-77
2023/01/13 10:40:49;;;;;;;28.38;3.63;;;;;;;;;;5060352;28;20032;-77
2023/01/13 10:43:15;;;;;;;26.98;5.97;;;;;;;;;;5065214;28;20025;-77
2023/01/13 10:45:41;;;;;;;23.30;3.70;;;;;;;;;;5058049;28;20029;-78
2023/01/13 10:48:13;;;;;;;34.50;6.97;;;;;;;;;;5058748;28;20063;-76
2023/01/13 10:50:40;;;;;;;26.38;4.75;;;;;;;;;;5067201;28;20039;-77
2023/01/13 10:53:19;;;;;;;20.65;4.22;;;;;;;;;;5066650;28;20033;-76
2023/01/13 10:55:57;;;;;;;35.10;4.53;;;;;;;;;;5045966;28;20032;-79
2023/01/13 10:58:24;;;;;;;25.42;5.68;;;;;;;;;;5062569;28;20084;-78
2023/01/13 11:00:58;;;;;;;23.45;4.25;;;;;;;;;;5063265;28;20032;-78
2023/01/13 11:03:24;;;;;;;24.83;4.88;;;;;;;;;;5063594;28;20024;-80
2023/01/13 11:06:00;;;;;;;20.48;5.13;;;;;;;;;;5053255;28;20036;-81
2023/01/13 11:08:28;;;;;;;22.25;3.58;;;;;;;;;;5058610;28;20039;-78
2023/01/13 11:10:58;;;;;;;28.85;5.53;;;;;;;;;;5067078;28;20044;-78
2023/01/13 11:13:35;;;;;;;20.38;4.05;;;;;;;;;;5067560;28;20035;-81
2023/01/13 11:16:04;;;;;;;27.27;4.55;;;;;;;;;;5061399;28;20029;-81
2023/01/13 11:18:31;;;;;;;28.63;4.18;;;;;;;;;;5067814;28;20037;-79
2023/01/13 11:20:58;;;;;;;24.80;5.78;;;;;;;;;;5069763;28;20503;-81
2023/01/13 11:23:36;;;;;;;31.05;4.38;;;;;;;;;;5068123;28;20039;-79
2023/01/13 11:26:12;;;;;;;30.17;3.70;;;;;;;;;;5047650;28;20393;-79
2023/01/13 11:28:38;;;;;;;29.63;4.90;;;;;;;;;;5066648;28;20047;-80
2023/01/13 11:31:10;;;;;;;17.20;3.83;;;;;;;;;;5051282;28;20028;-76
2023/01/13 11:33:46;;;;;;;22.10;4.50;;;;;;;;;;5065844;28;20039;-76
2023/01/13 11:36:17;;;;;;;33.67;5.68;;;;;;;;;;5071081;28;20070;-77
2023/01/13 11:38:51;;;;;;;28.40;7.00;;;;;;;;;;5070287;28;20012;-80
2023/01/13 11:41:17;;;;;;;19.83;4.07;;;;;;;;;;5057260;28;20540;-79
2023/01/13 11:43:55;;;;;;;20.15;4.50;;;;;;;;;;5069177;28;20032;-77
2023/01/13 11:46:26;;;;;;;19.38;4.13;;;;;;;;;;5068456;28;20427;-80
2023/01/13 11:48:55;;;;;;;26.42;4.05;;;;;;;;;;5069301;28;20028;-75
2023/01/13 11:51:40;;;;;;;25.13;4.10;;;;;;;;;;5054693;28;20032;-76
2023/01/13 11:54:23;;;;;;;23.67;3.38;;;;;;;;;;5069724;28;20082;-75
2023/01/13 11:56:55;;;;;;;17.40;2.60;;;;;;;;;;5067039;28;20066;-79
2023/01/13 11:59:36;;;;;;;14.30;2.58;;;;;;;;;;5069862;28;20040;-76
2023/01/13 12:02:21;;;;;;;14.80;3.38;;;;;;;;;;5063335;28;20035;-78
2023/01/13 12:04:54;;;;;;;17.48;3.50;;;;;;;;;;5044608;28;20412;-78
2023/01/13 12:07:20;;;;;;;;;;;;;;;;;;5062628;28;20056;-77
2023/01/13 12:09:49;;;;;;;14.98;2.92;;;;;;;;;;5065390;28;20430;-77
2023/01/13 12:12:26;;;;;;;24.65;4.22;;;;;;;;;;5059354;28;20024;-77
2023/01/13 12:14:58;;;;;;;21.05;3.42;;;;;;;;;;5064689;28;20128;-77
2023/01/13 12:17:33;;;;;;;18.63;3.50;;;;;;;;;;5058150;28;20025;-77
2023/01/13 12:20:06;;;;;;;24.83;4.47;;;;;;;;;;5044432;28;20435;-78
2023/01/13 12:22:32;;;;;;;21.48;3.20;;;;;;;;;;5062911;28;20025;-77
2023/01/13 12:25:12;;;;;;;16.75;2.40;;;;;;;;;;5033933;28;20029;-77
2023/01/13 12:27:42;;;;;;;15.25;3.25;;;;;;;;;;5059273;28;20519;-78
2023/01/13 12:30:17;;;;;;;15.35;3.10;;;;;;;;;;5062735;28;20020;-77
2023/01/13 12:32:43;;;;;;;15.30;3.33;;;;;;;;;;5061741;28;20028;-77
2023/01/13 12:35:28;;;;;;;26.75;3.22;;;;;;;;;;5065426;28;20048;-77
2023/01/13 12:38:02;;;;;;;18.35;3.45;;;;;;;;;;5059580;28;20043;-77
2023/01/13 12:40:48;;;;;;;16.65;3.20;;;;;;;;;;5057042;28;20036;-78
2023/01/13 12:46:23;;;;;;;25.02;3.90;;;;;;;;;;5064235;28;20086;-78
2023/01/13 12:48:56;;;;;;;22.55;3.15;;;;;;;;;;5052090;28;20044;-78
2023/01/13 12:51:22;;;;;;;19.45;3.88;;;;;;;;;;5063978;28;20028;-78
2023/01/13 12:53:48;;;;;;;16.88;2.63;;;;;;;;;;5065256;28;20403;-78
2023/01/13 12:56:22;;;;;;;22.13;3.47;;;;;;;;;;5060169;28;20049;-78
2023/01/13 12:58:48;;;;;;;20.80;3.03;;;;;;;;;;5058831;28;20040;-78
2023/01/13 13:01:14;;;;;;;19.35;3.90;;;;;;;;;;5061812;28;20043;-78
2023/01/13 13:03:40;;;;;;;19.20;2.97;;;;;;;;;;5055851;28;20036;-79
2023/01/13 13:06:13;;;;;;;19.17;2.42;;;;;;;;;;5065652;28;20524;-79
2023/01/13 13:08:44;;;;;;;15.20;2.25;;;;;;;;;;5044104;28;20032;-79
2023/01/13 13:13:16;;;;;;;20.05;3.15;;;;;;;;;;5055679;28;20103;-79
2023/01/13 13:14:03;;;;;;;24.85;6.38;;;;;;;;;;5057396;28;20032;-79
2023/01/13 13:16:29;;;;;;;19.17;3.15;;;;;;;;;;5058897;28;20028;-78
2023/01/13 13:19:14;;;;;;;10.88;2.70;;;;;;;;;;5057512;28;20038;-79
2023/01/13 13:22:00;;;;;;;19.67;4.53;;;;;;;;;;5058346;28;20650;-78
2023/01/13 13:24:29;;;;;;;17.40;3.83;;;;;;;;;;5057865;28;20032;-78
2023/01/13 13:26:55;;;;;;;10.02;2.08;;;;;;;;;;5057519;28;20088;-77
2023/01/13 13:29:21;;;;;;;16.15;2.42;;;;;;;;;;5060895;28;20468;-77
2023/01/13 13:31:47;;;;;;;18.00;2.83;;;;;;;;;;5062286;28;20036;-79
2023/01/13 13:34:28;;;;;;;12.70;2.15;;;;;;;;;;5065171;28;20020;-81
2023/01/13 13:36:54;;;;;;;18.63;2.78;;;;;;;;;;5069423;28;20040;-78
2023/01/13 13:47:41;;;;;;;15.30;2.53;;;;;;;;;;5060790;28;21061;-76
2023/01/13 13:50:12;;;;;;;14.00;3.33;;;;;;;;;;5062943;28;20463;-79
2023/01/13 13:52:44;;;;;;;12.30;2.35;;;;;;;;;;5066368;28;20111;-78
2023/01/13 13:55:37;;;;;;;17.02;2.75;;;;;;;;;;5062669;28;20037;-79
2023/01/13 13:58:03;;;;;;;19.85;3.08;;;;;;;;;;5060835;28;20057;-79
2023/01/13 14:00:31;;;;;;;12.65;2.63;;;;;;;;;;5061113;28;20052;-78
2023/01/13 14:03:00;;;;;;;18.50;2.25;;;;;;;;;;5063123;28;20059;-80
2023/01/13 14:05:33;;;;;;;17.20;3.05;;;;;;;;;;5062395;28;20469;-77
2023/01/13 14:08:07;;;;;;;14.20;2.83;;;;;;;;;;5074122;28;20129;-79
2023/01/13 14:10:34;;;;;;;17.52;3.78;;;;;;;;;;5063887;28;20387;-78
2023/01/13 14:13:02;;;;;;;14.20;2.33;;;;;;;;;;5053902;28;20467;-78
2023/01/13 14:15:33;;;;;;;20.73;3.67;;;;;;;;;;5063668;28;20037;-77
2023/01/13 14:18:01;;;;;;;16.42;3.13;;;;;;;;;;5068521;28;20415;-77
2023/01/13 14:20:28;;;;;;;19.48;3.20;;;;;;;;;;5066705;28;20068;-77
2023/01/13 14:22:59;;;;;;;18.60;2.53;;;;;;;;;;5053973;28;20028;-78
2023/01/13 14:25:31;;;;;;;13.10;2.50;;;;;;;;;;5039813;28;20028;-78
2023/01/13 14:27:59;;;;;;;17.70;3.08;;;;;;;;;;5074190;28;20047;-77
2023/01/13 14:30:26;;;;;;;23.70;3.55;;;;;;;;;;5062998;28;20020;-78
2023/01/13 14:32:53;;;;;;;9.95;2.25;;;;;;;;;;5061220;28;20362;-77
2023/01/13 14:35:19;;;;;;;14.35;2.97;;;;;;;;;;5060209;28;20484;-77
2023/01/13 14:37:47;;;;;;;17.45;2.60;;;;;;;;;;5064970;28;20037;-77
2023/01/13 14:40:34;;;;;;;18.50;2.55;;;;;;;;;;5066058;28;20021;-79
2023/01/13 14:43:01;;;;;;;16.13;2.65;;;;;;;;;;5067911;28;20562;-78
2023/01/13 14:45:29;;;;;;;20.00;4.45;;;;;;;;;;5069886;28;20508;-77
2023/01/13 14:47:55;;;;;;;19.00;3.35;;;;;;;;;;5068653;28;20036;-77
2023/01/13 14:50:28;;;;;;;14.00;3.22;;;;;;;;;;5066294;28;20381;-78
2023/01/13 14:52:55;;;;;;;16.13;3.13;;;;;;;;;;5065895;28;20024;-79
2023/01/13 14:55:29;;;;;;;13.75;3.25;;;;;;;;;;5068400;28;20044;-78
2023/01/13 14:58:13;;;;;;;11.95;2.75;;;;;;;;;;5073151;28;20025;-78
2023/01/13 15:00:39;;;;;;;18.27;3.47;;;;;;;;;;5067005;28;20044;-78
2023/01/13 15:03:06;;;;;;;15.70;2.70;;;;;;;;;;5072155;28;20036;-79
2023/01/13 15:05:37;;;;;;;17.50;2.40;;;;;;;;;;5068060;28;20044;-79
2023/01/13 15:08:17;;;;;;;18.52;3.28;;;;;;;;;;5073218;28;20093;-79
2023/01/13 15:10:47;;;;;;;20.88;3.05;;;;;;;;;;5065866;28;20107;-79
2023/01/13 15:13:30;;;;;;;14.93;2.17;;;;;;;;;;5058681;28;20416;-78
2023/01/13 15:15:57;;;;;;;17.38;3.22;;;;;;;;;;5051677;28;20032;-79
2023/01/13 15:18:24;;;;;;;16.42;4.03;;;;;;;;;;5072545;28;20028;-78
2023/01/13 15:20:50;;;;;;;22.63;3.50;;;;;;;;;;5072174;28;20059;-78
2023/01/13 15:23:17;;;;;;;16.58;2.22;;;;;;;;;;5049816;28;20064;-77
2023/01/13 15:25:43;;;;;;;21.23;4.45;;;;;;;;;;5052445;28;20366;-77
2023/01/13 15:28:17;;;;;;;14.18;3.17;;;;;;;;;;5068299;28;20060;-77
2023/01/13 15:30:44;;;;;;;25.42;4.55;;;;;;;;;;5072190;28;20020;-78
2023/01/13 15:33:11;;;;;;;13.95;2.47;;;;;;;;;;5073976;28;20028;-78
2023/01/13 15:35:39;;;;;;;16.38;2.60;;;;;;;;;;5052134;28;20052;-78
2023/01/13 15:38:09;;;;;;;12.52;3.15;;;;;;;;;;5057276;28;20099;-78
2023/01/13 15:40:35;;;;;;;18.95;3.78;;;;;;;;;;5066986;28;20036;-78
2023/01/13 15:48:31;;;;;;;23.55;3.45;;;;;;;;;;5066865;28;20085;-79